EGXV

RAF Leconfield Airport

Leconfield, United Kingdom
METAR EGXV 172050Z AUTO 32009KT 9999 NCD 05/03 Q1018
Observed Flight Rules
Dec-17 @ 20:50 UTC (39 minutes ago) Visual Flight Rules
Wind Visibility Clouds
320° at 9 knots 10,000+ meters
  • Clear skies
Temperatures Readings
Current 5°C / 41°F
Dewpoint 3°C / 37°F
Humidity 87%
Altimeter 30.06" Hg
Pressure 1018 hPa
Elevation 6
METAR EGXV 172050Z AUTO 32009KT 9999 NCD 05/03 Q1018
Observed Flight Rules
Dec-17 @ 20:50 UTC
(39 minutes ago)
VFR
Wind Visibility
320° at 9 knots 10,000+ meters
Clouds
  • Clear skies
Temperature Dewpoint
5°C / 41°F 3°C / 37°F
Humidity Altimeter Pressure
87% 30.06" Hg 1018 hPa